createdAt,value
2023-03-07T00:02:15.527Z,12.32
2023-03-07T00:04:47.066Z,11.68
2023-03-07T00:07:14.702Z,12.02
2023-03-07T00:09:42.324Z,12.02
2023-03-07T00:12:10.520Z,12.10
2023-03-07T00:14:38.732Z,11.65
2023-03-07T00:17:05.841Z,12.93
2023-03-07T00:19:32.923Z,12.38
2023-03-07T00:21:59.982Z,12.00
2023-03-07T00:24:27.132Z,12.60
2023-03-07T00:26:54.080Z,12.57
2023-03-07T00:29:20.992Z,11.98
2023-03-07T00:31:49.243Z,11.88
2023-03-07T00:34:16.558Z,11.65
2023-03-07T00:36:43.822Z,12.23
2023-03-07T00:39:11.237Z,12.02
2023-03-07T00:41:38.473Z,13.43
2023-03-07T00:44:05.566Z,13.25
2023-03-07T00:46:32.763Z,13.55
2023-03-07T00:49:08.522Z,12.88
2023-03-07T00:51:35.518Z,14.05
2023-03-07T00:54:03.842Z,12.77
2023-03-07T00:56:33.251Z,12.85
2023-03-07T00:59:00.235Z,14.05
2023-03-07T01:01:27.317Z,12.05
2023-03-07T01:03:54.628Z,12.40
2023-03-07T01:06:24.945Z,13.13
2023-03-07T01:08:53.933Z,12.18
2023-03-07T01:11:21.098Z,13.18
2023-03-07T01:13:48.136Z,12.25
2023-03-07T01:16:24.771Z,13.00
2023-03-07T01:18:54.709Z,12.32
2023-03-07T01:21:28.065Z,12.73
2023-03-07T01:23:55.886Z,11.15
2023-03-07T01:26:26.277Z,11.55
2023-03-07T01:28:56.490Z,12.30
2023-03-07T01:31:25.151Z,12.55
2023-03-07T01:33:54.024Z,12.60
2023-03-07T01:36:28.457Z,12.88
2023-03-07T01:39:02.708Z,11.90
2023-03-07T01:41:32.476Z,12.30
2023-03-07T01:44:02.634Z,11.30
2023-03-07T01:46:49.754Z,13.65
2023-03-07T01:49:28.941Z,11.82
2023-03-07T01:52:09.216Z,12.35
2023-03-07T01:54:43.089Z,12.32
2023-03-07T01:57:10.167Z,11.65
2023-03-07T01:59:45.546Z,13.30
2023-03-07T02:02:19.388Z,12.77
2023-03-07T02:04:59.185Z,12.77
2023-03-07T02:07:31.760Z,13.93
2023-03-07T02:10:00.045Z,13.80
2023-03-07T02:12:27.715Z,13.32
2023-03-07T02:14:55.376Z,14.13
2023-03-07T02:17:23.022Z,12.88
2023-03-07T02:20:27.528Z,14.13
2023-03-07T02:22:55.859Z,13.10
2023-03-07T02:25:47.773Z,13.65
2023-03-07T02:28:17.338Z,13.85
2023-03-07T02:31:07.408Z,14.63
2023-03-07T02:33:36.801Z,13.45
2023-03-07T02:36:18.853Z,14.02
2023-03-07T02:38:59.524Z,14.18
2023-03-07T02:41:31.231Z,14.15
2023-03-07T02:44:01.780Z,14.38
2023-03-07T02:46:28.883Z,14.68
2023-03-07T02:48:56.059Z,14.48
2023-03-07T02:51:23.450Z,14.23
2023-03-07T02:53:51.417Z,14.63
2023-03-07T02:56:18.479Z,15.70
2023-03-07T02:58:46.052Z,14.38
2023-03-07T03:01:13.697Z,14.95
2023-03-07T03:03:40.850Z,13.80
2023-03-07T03:06:07.998Z,12.80
2023-03-07T03:08:35.206Z,14.23
2023-03-07T03:11:02.173Z,13.35
2023-03-07T03:13:29.825Z,14.68
2023-03-07T03:15:58.371Z,14.25
2023-03-07T03:18:28.365Z,13.45
2023-03-07T03:20:55.403Z,13.88
2023-03-07T03:23:23.268Z,14.80
2023-03-07T03:26:07.728Z,14.63
2023-03-07T03:28:36.094Z,15.00
2023-03-07T03:31:06.902Z,17.13
2023-03-07T03:33:34.611Z,15.93
2023-03-07T03:36:10.510Z,15.05
2023-03-07T03:38:39.387Z,15.20
2023-03-07T03:41:11.371Z,14.48
2023-03-07T03:43:39.461Z,14.95
2023-03-07T03:46:07.083Z,15.57
2023-03-07T03:48:34.074Z,14.00
2023-03-07T03:51:05.038Z,15.25
2023-03-07T03:53:33.391Z,13.93
2023-03-07T03:56:09.635Z,15.38
2023-03-07T03:58:36.813Z,14.20
2023-03-07T04:01:05.993Z,15.18
2023-03-07T04:03:34.308Z,14.15
2023-03-07T04:06:03.368Z,15.25
2023-03-07T04:08:31.024Z,14.60
2023-03-07T04:10:58.576Z,15.02
2023-03-07T04:13:26.474Z,15.18
2023-03-07T04:15:54.813Z,14.70
2023-03-07T04:18:22.803Z,14.30
2023-03-07T04:20:51.073Z,14.48
2023-03-07T04:23:19.374Z,14.77
2023-03-07T04:25:55.720Z,14.93
2023-03-07T04:28:28.612Z,14.23
2023-03-07T04:30:56.456Z,13.93
2023-03-07T04:33:27.393Z,13.98
2023-03-07T04:35:54.380Z,14.07
2023-03-07T04:38:21.570Z,13.57
2023-03-07T04:40:48.597Z,13.75
2023-03-07T04:43:15.813Z,13.23
2023-03-07T04:45:42.830Z,13.00
2023-03-07T04:48:10.014Z,13.35
2023-03-07T04:50:37.670Z,13.32
2023-03-07T04:53:04.838Z,12.80
2023-03-07T04:55:31.887Z,12.60
2023-03-07T04:57:58.976Z,12.45
2023-03-07T05:00:26.483Z,12.02
2023-03-07T05:02:58.400Z,11.50
2023-03-07T05:05:25.597Z,12.60
2023-03-07T05:07:52.696Z,11.63
2023-03-07T05:10:19.816Z,11.35
2023-03-07T05:12:47.043Z,11.98
2023-03-07T05:15:14.281Z,11.80
2023-03-07T05:17:41.373Z,12.10
2023-03-07T05:20:10.896Z,12.35
2023-03-07T05:22:38.338Z,11.65
2023-03-07T05:25:07.003Z,11.07
2023-03-07T05:27:34.915Z,12.65
2023-03-07T05:30:02.032Z,11.90
2023-03-07T05:32:29.164Z,12.10
2023-03-07T05:34:56.767Z,12.30
2023-03-07T05:37:23.915Z,11.00
2023-03-07T05:39:51.291Z,11.77
2023-03-07T05:42:18.304Z,10.93
2023-03-07T05:44:48.100Z,11.43
2023-03-07T05:47:15.434Z,11.45
2023-03-07T05:49:42.705Z,15.52
2023-03-07T05:52:10.237Z,16.45
2023-03-07T05:54:37.518Z,23.80
2023-03-07T05:57:04.595Z,19.15
2023-03-07T05:59:31.618Z,23.55
2023-03-07T06:01:58.759Z,28.05
2023-03-07T06:04:25.794Z,19.33
2023-03-07T06:06:55.866Z,15.63
2023-03-07T06:09:23.692Z,13.30
2023-03-07T06:11:51.223Z,12.98
2023-03-07T06:14:18.394Z,11.30
2023-03-07T06:16:45.478Z,12.70
2023-03-07T06:19:12.943Z,12.13
2023-03-07T06:21:40.111Z,12.80
2023-03-07T06:24:07.811Z,12.07
2023-03-07T06:26:35.226Z,11.73
2023-03-07T06:29:04.471Z,12.63
2023-03-07T06:31:31.845Z,12.52
2023-03-07T06:33:59.759Z,12.85
2023-03-07T06:36:27.679Z,12.90
2023-03-07T06:38:58.565Z,13.15
2023-03-07T06:41:26.020Z,12.25
2023-03-07T06:43:55.466Z,11.57
2023-03-07T06:46:28.657Z,11.95
2023-03-07T06:48:56.736Z,11.80
2023-03-07T06:51:25.176Z,12.10
2023-03-07T06:53:55.461Z,12.25
2023-03-07T06:56:23.294Z,11.10
2023-03-07T06:58:50.412Z,12.48
2023-03-07T07:01:23.130Z,10.90
2023-03-07T07:03:52.503Z,11.93
2023-03-07T07:06:20.040Z,11.63
2023-03-07T07:08:48.964Z,12.52
2023-03-07T07:11:16.236Z,11.00
2023-03-07T07:13:45.695Z,10.63
2023-03-07T07:16:14.749Z,11.07
2023-03-07T07:18:41.927Z,12.13
2023-03-07T07:21:09.995Z,11.65
2023-03-07T07:23:40.147Z,10.48
2023-03-07T07:26:07.366Z,10.32
2023-03-07T07:28:36.543Z,9.85
2023-03-07T07:31:05.745Z,10.60
2023-03-07T07:33:33.758Z,10.13
2023-03-07T07:36:00.817Z,10.07
2023-03-07T07:38:28.761Z,10.05
2023-03-07T07:40:56.439Z,8.95
2023-03-07T07:43:24.482Z,9.45
2023-03-07T07:46:17.774Z,9.70
2023-03-07T07:48:47.998Z,9.88
2023-03-07T07:51:19.010Z,9.30
2023-03-07T07:53:47.175Z,9.43
2023-03-07T07:56:14.841Z,9.15
2023-03-07T07:58:42.012Z,9.13
2023-03-07T08:01:14.329Z,8.85
2023-03-07T08:03:41.526Z,8.77
2023-03-07T08:06:08.921Z,8.73
2023-03-07T08:08:37.338Z,9.45
2023-03-07T08:11:05.173Z,9.52
2023-03-07T08:13:32.520Z,8.68
2023-03-07T08:15:59.765Z,9.23
2023-03-07T08:18:26.989Z,9.57
2023-03-07T08:20:54.181Z,8.88
2023-03-07T08:23:21.253Z,9.98
2023-03-07T08:25:50.171Z,8.73
2023-03-07T08:28:17.389Z,10.30
2023-03-07T08:30:44.586Z,8.77
2023-03-07T08:33:11.840Z,9.30
2023-03-07T08:35:40.205Z,8.52
2023-03-07T08:38:07.385Z,7.97
2023-03-07T08:40:34.554Z,7.88
2023-03-07T08:43:01.600Z,9.05
2023-03-07T08:45:28.829Z,7.65
2023-03-07T08:47:56.999Z,8.02
2023-03-07T08:50:27.097Z,7.22
2023-03-07T08:52:54.545Z,8.20
2023-03-07T08:55:21.770Z,7.45
2023-03-07T08:57:48.917Z,7.72
2023-03-07T09:00:17.981Z,6.45
2023-03-07T09:02:45.391Z,7.78
2023-03-07T09:05:12.544Z,8.13
2023-03-07T09:07:39.536Z,7.60
2023-03-07T09:10:07.001Z,7.20
2023-03-07T09:12:34.635Z,7.38
2023-03-07T09:15:01.604Z,6.43
2023-03-07T09:17:29.960Z,6.88
2023-03-07T09:19:57.124Z,6.72
2023-03-07T09:22:24.195Z,6.65
2023-03-07T09:24:51.211Z,6.63
2023-03-07T09:27:18.285Z,5.78
2023-03-07T09:29:45.352Z,6.05
2023-03-07T09:32:12.307Z,5.88
2023-03-07T09:34:39.549Z,6.20
2023-03-07T09:37:06.727Z,6.25
2023-03-07T09:39:34.086Z,6.30
2023-03-07T09:42:03.964Z,5.88
2023-03-07T09:45:14.158Z,6.22
2023-03-07T09:48:04.276Z,5.60
2023-03-07T09:50:57.235Z,5.97
2023-03-07T09:53:33.544Z,5.97
2023-03-07T09:56:04.365Z,5.68
2023-03-07T09:58:31.895Z,6.20
2023-03-07T10:01:01.632Z,5.45
2023-03-07T10:03:44.474Z,5.80
2023-03-07T10:06:20.489Z,5.68
2023-03-07T10:11:43.126Z,5.75
2023-03-07T10:14:31.198Z,6.72
2023-03-07T10:17:07.675Z,5.72
2023-03-07T10:19:48.507Z,5.40
2023-03-07T10:22:21.535Z,5.13
2023-03-07T10:25:16.530Z,5.55
2023-03-07T10:27:46.892Z,5.93
2023-03-07T10:30:18.046Z,5.63
2023-03-07T10:33:01.415Z,6.32
2023-03-07T10:35:42.213Z,5.35
2023-03-07T10:38:15.771Z,5.30
2023-03-07T10:41:09.206Z,5.65
2023-03-07T10:43:36.471Z,6.35
2023-03-07T10:46:25.340Z,6.22
2023-03-07T10:49:31.638Z,6.43
2023-03-07T10:52:27.489Z,5.82
2023-03-07T10:54:55.263Z,5.47
2023-03-07T10:57:31.306Z,5.68
2023-03-07T11:00:14.248Z,6.32
2023-03-07T11:02:46.431Z,6.30
2023-03-07T11:05:34.052Z,7.05
2023-03-07T11:08:19.955Z,6.25
2023-03-07T11:10:47.256Z,6.43
2023-03-07T11:13:20.230Z,7.03
2023-03-07T11:15:47.826Z,6.47
2023-03-07T11:18:39.200Z,6.80
2023-03-07T11:21:06.323Z,6.43
2023-03-07T11:23:33.549Z,7.00
2023-03-07T11:26:21.830Z,8.23
2023-03-07T11:29:08.434Z,8.18
2023-03-07T11:31:41.442Z,7.28
2023-03-07T11:34:27.994Z,7.40
2023-03-07T11:37:15.234Z,6.63
2023-03-07T11:40:12.873Z,6.82
2023-03-07T11:43:00.619Z,7.10
2023-03-07T11:46:10.661Z,6.22
2023-03-07T11:48:56.509Z,6.97
2023-03-07T11:52:04.400Z,7.25
2023-03-07T11:55:11.141Z,6.25
2023-03-07T11:57:59.849Z,7.63
2023-03-07T12:00:51.446Z,7.07
2023-03-07T12:03:56.502Z,6.55
2023-03-07T12:06:23.922Z,6.35
2023-03-07T12:09:10.845Z,6.05
2023-03-07T12:12:01.510Z,6.82
2023-03-07T12:15:05.017Z,6.47
2023-03-07T12:17:52.939Z,6.30
2023-03-07T12:20:51.872Z,5.70
2023-03-07T12:23:28.039Z,5.90
2023-03-07T12:25:59.283Z,6.10
2023-03-07T12:28:41.003Z,6.72
2023-03-07T12:31:11.330Z,6.50
2023-03-07T12:33:50.881Z,6.63
2023-03-07T12:36:44.668Z,6.72
2023-03-07T12:39:17.879Z,6.68
2023-03-07T12:42:06.251Z,6.50
2023-03-07T12:44:40.727Z,6.30
2023-03-07T12:47:25.435Z,6.78
2023-03-07T12:50:34.284Z,6.53
2023-03-07T12:53:22.663Z,6.15
2023-03-07T12:56:32.824Z,7.60
2023-03-07T12:59:05.866Z,7.10
2023-03-07T13:01:38.299Z,6.88
2023-03-07T13:04:30.021Z,6.22
2023-03-07T13:07:18.877Z,6.35
2023-03-07T13:09:49.086Z,6.50
2023-03-07T13:12:16.513Z,6.93
2023-03-07T13:14:45.710Z,6.63
2023-03-07T13:17:35.171Z,7.32
2023-03-07T13:20:06.987Z,7.32
2023-03-07T13:22:37.462Z,6.88
2023-03-07T13:25:20.110Z,7.22
2023-03-07T13:28:01.693Z,7.55
2023-03-07T13:30:33.561Z,7.00
2023-03-07T13:33:06.746Z,6.32
2023-03-07T13:35:33.925Z,7.47
2023-03-07T13:38:03.816Z,7.28
2023-03-07T13:40:33.711Z,5.97
2023-03-07T13:43:04.955Z,6.97
2023-03-07T13:45:38.173Z,6.45
2023-03-07T13:48:11.896Z,6.60
2023-03-07T13:50:58.874Z,6.90
2023-03-07T13:53:33.965Z,6.50
2023-03-07T13:56:02.616Z,6.55
2023-03-07T13:58:40.633Z,6.57
2023-03-07T14:01:31.103Z,6.55
2023-03-07T14:04:26.723Z,7.82
2023-03-07T14:07:05.153Z,7.15
2023-03-07T14:09:39.944Z,6.53
2023-03-07T14:12:39.734Z,6.60
2023-03-07T14:15:45.356Z,7.22
2023-03-07T14:18:25.217Z,7.00
2023-03-07T14:21:01.738Z,8.15
2023-03-07T14:24:14.132Z,8.63
2023-03-07T14:26:46.292Z,6.93
2023-03-07T14:29:18.186Z,7.70
2023-03-07T14:31:46.955Z,6.43
2023-03-07T14:34:29.680Z,6.93
2023-03-07T14:37:02.392Z,6.97
2023-03-07T14:39:35.882Z,6.80
2023-03-07T14:42:25.394Z,6.97
2023-03-07T14:45:08.643Z,7.10
2023-03-07T14:48:05.290Z,7.60
2023-03-07T14:50:33.167Z,7.80
2023-03-07T14:53:07.310Z,6.80
2023-03-07T14:55:44.763Z,7.45
2023-03-07T14:58:32.509Z,7.28
2023-03-07T15:01:14.458Z,7.25
2023-03-07T15:03:50.035Z,7.30
2023-03-07T15:06:20.745Z,6.70
2023-03-07T15:08:52.370Z,6.45
2023-03-07T15:11:50.174Z,7.43
2023-03-07T15:14:54.203Z,7.32
2023-03-07T15:17:34.583Z,6.85
2023-03-07T15:20:11.271Z,7.38
2023-03-07T15:22:41.779Z,6.47
2023-03-07T15:25:20.786Z,6.75
2023-03-07T15:27:59.378Z,7.05
2023-03-07T15:30:33.034Z,7.88
2023-03-07T15:33:09.646Z,6.57
2023-03-07T15:35:36.952Z,7.05
2023-03-07T15:38:16.409Z,6.80
2023-03-07T15:40:44.417Z,6.43
2023-03-07T15:43:26.346Z,7.10
2023-03-07T15:46:08.549Z,6.25
2023-03-07T15:48:48.854Z,4.93
2023-03-07T15:51:27.434Z,4.65
2023-03-07T15:53:58.721Z,4.45
2023-03-07T15:56:37.022Z,5.05
2023-03-07T15:59:31.984Z,3.20
2023-03-07T16:02:31.149Z,2.22
2023-03-07T16:04:59.816Z,1.50
2023-03-07T16:07:26.884Z,1.25
2023-03-07T16:09:54.116Z,1.00
2023-03-07T16:12:23.674Z,1.15
2023-03-07T16:14:53.593Z,1.05
2023-03-07T16:17:37.869Z,1.30
2023-03-07T16:20:13.772Z,1.00
2023-03-07T16:22:42.746Z,1.13
2023-03-07T16:25:12.101Z,1.42
2023-03-07T16:27:40.928Z,1.30
2023-03-07T16:30:16.968Z,2.03
2023-03-07T16:32:44.365Z,3.10
2023-03-07T16:35:15.814Z,4.18
2023-03-07T16:37:43.198Z,3.83
2023-03-07T16:40:11.720Z,2.72
2023-03-07T16:42:45.701Z,4.60
2023-03-07T16:45:23.505Z,3.72
2023-03-07T16:47:56.071Z,8.77
2023-03-07T16:50:33.649Z,12.68
2023-03-07T16:53:00.828Z,10.85
2023-03-07T16:55:28.268Z,13.90
2023-03-07T16:58:00.263Z,12.98
2023-03-07T17:00:28.874Z,11.10
2023-03-07T17:03:00.153Z,10.60
2023-03-07T17:05:31.152Z,9.27
2023-03-07T17:08:01.508Z,8.55
2023-03-07T17:10:30.829Z,9.10
2023-03-07T17:12:58.844Z,7.97
2023-03-07T17:15:31.285Z,6.53
2023-03-07T17:17:59.370Z,5.57
2023-03-07T17:20:30.030Z,4.40
2023-03-07T17:22:57.235Z,6.38
2023-03-07T17:25:25.473Z,5.38
2023-03-07T17:28:19.265Z,5.82
2023-03-07T17:30:52.109Z,7.23
2023-03-07T17:33:19.773Z,7.75
2023-03-07T17:35:49.134Z,7.45
2023-03-07T17:38:19.512Z,6.53
2023-03-07T17:40:46.653Z,6.00
2023-03-07T17:43:17.671Z,4.85
2023-03-07T17:45:44.837Z,3.92
2023-03-07T17:48:18.303Z,3.20
2023-03-07T17:50:46.223Z,3.35
2023-03-07T17:53:13.425Z,3.70
2023-03-07T17:55:40.461Z,3.40
2023-03-07T17:58:11.535Z,3.50
2023-03-07T18:00:39.301Z,5.00
2023-03-07T18:03:06.482Z,5.72
2023-03-07T18:05:33.689Z,5.80
2023-03-07T18:08:00.717Z,5.45
2023-03-07T18:10:28.468Z,3.40
2023-03-07T18:12:55.520Z,2.88
2023-03-07T18:15:23.055Z,2.78
2023-03-07T18:17:50.480Z,2.67
2023-03-07T18:20:19.634Z,2.72
2023-03-07T18:22:47.303Z,3.10
2023-03-07T18:25:16.831Z,2.40
2023-03-07T18:27:44.783Z,2.42
2023-03-07T18:30:12.540Z,3.33
2023-03-07T18:32:39.716Z,3.75
2023-03-07T18:35:08.034Z,3.90
2023-03-07T18:37:35.177Z,3.53
2023-03-07T18:40:02.674Z,3.13
2023-03-07T18:42:30.456Z,2.90
2023-03-07T18:44:57.683Z,2.80
2023-03-07T18:47:24.779Z,3.17
2023-03-07T18:49:52.334Z,4.18
2023-03-07T18:52:19.383Z,4.93
2023-03-07T18:54:48.567Z,4.50
2023-03-07T18:57:16.021Z,5.60
2023-03-07T18:59:43.061Z,4.35
2023-03-07T19:02:10.606Z,3.90
2023-03-07T19:04:37.683Z,4.32
2023-03-07T19:07:04.891Z,3.78
2023-03-07T19:09:32.107Z,3.70
2023-03-07T19:11:59.162Z,2.63
2023-03-07T19:14:26.548Z,3.00
2023-03-07T19:16:54.523Z,3.13
2023-03-07T19:19:21.624Z,3.58
2023-03-07T19:21:49.602Z,4.30
2023-03-07T19:24:16.805Z,4.28
2023-03-07T19:26:44.967Z,4.38
2023-03-07T19:29:13.281Z,4.05
2023-03-07T19:31:43.846Z,4.13
2023-03-07T19:34:11.368Z,3.05
2023-03-07T19:36:41.593Z,3.70
2023-03-07T19:39:10.592Z,3.30
2023-03-07T19:41:39.653Z,3.55
2023-03-07T19:44:12.169Z,3.88
2023-03-07T19:46:46.474Z,3.33
2023-03-07T19:49:15.522Z,3.65
2023-03-07T19:51:42.682Z,3.35
2023-03-07T19:54:14.187Z,4.13
2023-03-07T19:56:42.682Z,4.00
2023-03-07T19:59:11.098Z,3.92
2023-03-07T20:01:38.118Z,3.90
2023-03-07T20:04:06.523Z,4.18
2023-03-07T20:06:33.731Z,4.45
2023-03-07T20:09:01.158Z,4.20
2023-03-07T20:11:31.106Z,5.30
2023-03-07T20:14:00.749Z,4.35
2023-03-07T20:16:29.517Z,4.32
2023-03-07T20:19:02.458Z,3.40
2023-03-07T20:21:30.530Z,4.00
2023-03-07T20:24:00.609Z,4.50
2023-03-07T20:26:36.539Z,4.32
2023-03-07T20:29:05.760Z,4.50
2023-03-07T20:31:33.450Z,4.53
2023-03-07T20:34:00.987Z,4.10
2023-03-07T20:36:33.400Z,4.60
2023-03-07T20:39:03.131Z,4.20
2023-03-07T20:41:32.584Z,3.92
2023-03-07T20:44:03.538Z,3.83
2023-03-07T20:46:31.625Z,3.35
2023-03-07T20:49:00.227Z,3.55
2023-03-07T20:51:30.218Z,3.80
2023-03-07T20:54:02.207Z,4.28
2023-03-07T20:56:31.829Z,3.83
2023-03-07T20:58:59.980Z,3.58
2023-03-07T21:01:29.653Z,3.70
2023-03-07T21:03:59.237Z,3.88
2023-03-07T21:06:26.601Z,4.50
2023-03-07T21:08:53.778Z,5.50
2023-03-07T21:11:21.541Z,4.55
2023-03-07T21:13:50.264Z,4.60
2023-03-07T21:16:25.463Z,4.50
2023-03-07T21:18:52.697Z,4.68
2023-03-07T21:21:21.883Z,4.43
2023-03-07T21:23:49.490Z,4.22
2023-03-07T21:26:19.516Z,4.22
2023-03-07T21:28:47.180Z,4.30
2023-03-07T21:31:14.291Z,3.80
2023-03-07T21:33:43.229Z,3.85
2023-03-07T21:36:14.188Z,3.10
2023-03-07T21:38:42.807Z,2.95
2023-03-07T21:41:10.013Z,3.10
2023-03-07T21:43:37.269Z,2.92
2023-03-07T21:46:09.789Z,2.63
2023-03-07T21:48:37.514Z,2.47
2023-03-07T21:51:05.061Z,2.45
2023-03-07T21:53:33.012Z,2.33
2023-03-07T21:56:03.077Z,2.25
2023-03-07T21:58:30.947Z,2.00
2023-03-07T22:00:58.935Z,2.50
2023-03-07T22:03:28.406Z,2.20
2023-03-07T22:05:57.206Z,1.98
2023-03-07T22:08:24.567Z,2.00
2023-03-07T22:11:03.433Z,2.17
2023-03-07T22:13:32.999Z,2.00
2023-03-07T22:16:03.224Z,2.03
2023-03-07T22:18:31.307Z,1.90
2023-03-07T22:20:58.629Z,1.92
2023-03-07T22:23:28.818Z,2.00
2023-03-07T22:25:55.727Z,1.77
2023-03-07T22:28:23.211Z,1.45
2023-03-07T22:30:50.392Z,1.67
2023-03-07T22:33:17.475Z,1.67
2023-03-07T22:35:44.807Z,1.40
2023-03-07T22:38:12.034Z,1.58
2023-03-07T22:40:39.525Z,1.67
2023-03-07T22:43:06.593Z,1.63
2023-03-07T22:45:33.753Z,1.52
2023-03-07T22:48:00.754Z,1.95
2023-03-07T22:50:28.886Z,1.70
2023-03-07T22:52:56.017Z,2.00
2023-03-07T22:55:23.156Z,1.38
2023-03-07T22:57:50.095Z,1.73
2023-03-07T23:00:17.293Z,1.60
2023-03-07T23:02:44.337Z,1.50
2023-03-07T23:05:11.496Z,1.50
2023-03-07T23:07:39.978Z,1.60
2023-03-07T23:10:07.176Z,1.20
2023-03-07T23:12:34.300Z,1.70
2023-03-07T23:15:01.385Z,1.52
2023-03-07T23:17:28.485Z,1.50
2023-03-07T23:19:55.669Z,1.40
2023-03-07T23:22:23.072Z,1.35
2023-03-07T23:24:50.036Z,1.48
2023-03-07T23:27:17.122Z,1.38
2023-03-07T23:29:44.386Z,1.33
2023-03-07T23:32:11.681Z,1.40
2023-03-07T23:34:38.683Z,1.10
2023-03-07T23:37:05.696Z,1.23
2023-03-07T23:39:32.832Z,1.30
2023-03-07T23:41:59.835Z,1.10
2023-03-07T23:44:26.800Z,1.30
2023-03-07T23:46:53.808Z,1.17
2023-03-07T23:49:21.001Z,1.20
2023-03-07T23:51:48.423Z,1.30
2023-03-07T23:54:15.524Z,1.40
2023-03-07T23:56:43.256Z,1.73
2023-03-07T23:59:10.194Z,1.70
